Weather


ICAO METAR
KAPA KAPA 240312Z 02007KT 1/2SM -SN BR BKN006 OVC013 00/M01 A3029 RMK AO2 SFC VIS 3/4 P0001 T00001011
KASE KASE 240324Z AUTO 26007KT 1SM -SN BR VV008 M02/M04 A3020 RMK AO2 P0003 T10221044
KBJC KBJC 240245Z 23003KT 1SM SN OVC006 00/00 A3033
KBKF KBKF 240258Z 00000KT 3/4SM R32/4000FT -SN BR BKN011 OVC025 00/M01 A3032 RMK AO2A SLP273 P0001 60004 T10031009 52037
KCOS KCOS 240254Z 36006KT 3SM -SN BR SCT010 OVC026 00/M01 A3027 RMK AO2 SLP267 PCPN VRY LGT P0002 60016 T00001011 51010
KCPR KCPR 240253Z 04006KT 10SM BKN100 M02/M04 A3034 RMK AO2 SLP294 60000 T10171044 51013
KCYS KCYS 240253Z 01015G23KT 10SM OVC036 M01/M06 A3028 RMK AO2 PK WND 02029/0226 SLP272 T10111056 51028
KDEN KDEN 240253Z 00000KT 9SM -SN FEW032 OVC046 02/M02 A3031 RMK AO2 SLP263 P0000 60000 T00171017 51034 $
KEGE KEGE 240323Z AUTO 00000KT 7SM UP SCT007 BKN023 OVC047 M01/M02 A3024 RMK AO2 UPB23SNE23 CIG 020V032 P0001 FZRANO
KFCS KFCS 240311Z 34014KT 2 3/4SM -SN BR OVC009 00/00 A3026 RMK AO2A VIS 2 1/2V3 SLP280 $
KFMN KFMN 240253Z 27007KT 10SM CLR 09/M12 A3003 RMK AO2 SLP158 T00941122 51003
KFTG KFTG 240312Z AUTO 00000KT 2 1/2SM -SN BKN020 BKN026 OVC040 02/01 A3033 RMK AO2 T00150006
KGCC KGCC 240253Z AUTO 31007KT 10SM OVC050 M01/M02 A3033 RMK AO2 SLP295 T10061017 51017
KGJT KGJT 240253Z 31013KT 10SM BKN090 OVC110 07/M07 A3020 RMK AO2 PK WND 05027/0156 SLP217 T00671067 51055
KPUB KPUB 240253Z 07009KT 4SM RA BR OVC014 03/02 A3028 RMK AO2 PK WND 04028/0158 SLP251 P0008 60008 T00330017 51030
KRAP KRAP 240252Z 35012KT 10SM CLR 00/M03 A3030 RMK AO2 SLP288 T00001028 51017
KRCA KRCA 240311Z AUTO 34008KT 10SM BKN025 01/01 A3030 RMK AO2 CIG 025V130 BKN V SCT CIG 024 RWY13 SLP288 $

Surface Data
Click here.

This is a composite map contain the following analyses: radar summary (color filled areas), surface data plot (composite station model), frontal locations (in various bold lines) and pressure contours (in thin blue lines).